createdAt,value
2022-10-30T00:01:28.929Z,14.30
2022-10-30T00:03:56.561Z,12.32
2022-10-30T00:06:24.270Z,15.43
2022-10-30T00:08:51.918Z,18.20
2022-10-30T00:11:19.656Z,14.07
2022-10-30T00:13:48.682Z,11.73
2022-10-30T00:16:16.318Z,12.48
2022-10-30T00:18:45.793Z,8.85
2022-10-30T00:21:14.275Z,15.07
2022-10-30T00:23:46.327Z,11.55
2022-10-30T00:26:14.011Z,15.23
2022-10-30T00:28:41.579Z,17.95
2022-10-30T00:31:10.956Z,13.05
2022-10-30T00:33:38.615Z,12.27
2022-10-30T00:36:10.474Z,14.07
2022-10-30T00:38:38.380Z,12.65
2022-10-30T00:41:06.174Z,10.05
2022-10-30T00:43:35.160Z,9.63
2022-10-30T00:46:07.109Z,10.27
2022-10-30T00:48:36.449Z,11.35
2022-10-30T00:51:06.236Z,14.95
2022-10-30T00:53:34.008Z,14.48
2022-10-30T00:56:03.753Z,14.38
2022-10-30T00:58:33.438Z,14.18
2022-10-30T01:01:12.835Z,11.48
2022-10-30T01:07:01.374Z,13.77
2022-10-30T01:09:30.853Z,11.88
2022-10-30T01:11:58.975Z,11.95
2022-10-30T01:14:27.209Z,12.35
2022-10-30T01:17:07.153Z,16.50
2022-10-30T01:19:39.860Z,12.77
2022-10-30T01:22:23.135Z,12.00
2022-10-30T01:24:56.767Z,13.20
2022-10-30T01:27:33.955Z,9.20
2022-10-30T01:30:07.199Z,17.13
2022-10-30T01:32:41.383Z,9.98
2022-10-30T01:35:11.360Z,11.10
2022-10-30T01:37:42.752Z,14.00
2022-10-30T01:40:13.988Z,15.80
2022-10-30T01:42:49.391Z,13.98
2022-10-30T01:45:19.521Z,13.35
2022-10-30T01:47:52.497Z,11.25
2022-10-30T01:50:28.046Z,10.68
2022-10-30T01:52:59.113Z,13.88
2022-10-30T01:55:34.007Z,20.17
2022-10-30T01:58:05.883Z,18.10
2022-10-30T02:00:33.597Z,15.07
2022-10-30T02:03:01.742Z,10.63
2022-10-30T02:05:32.961Z,14.50
2022-10-30T02:08:00.784Z,14.60
2022-10-30T02:10:31.003Z,16.77
2022-10-30T02:12:58.590Z,14.98
2022-10-30T02:15:26.241Z,15.82
2022-10-30T02:17:54.061Z,13.07
2022-10-30T02:20:23.279Z,15.68
2022-10-30T02:22:54.504Z,13.40
2022-10-30T02:25:25.743Z,13.35
2022-10-30T02:27:53.390Z,13.95
2022-10-30T02:30:21.106Z,16.17
2022-10-30T02:32:48.908Z,13.52
2022-10-30T02:35:16.709Z,13.00
2022-10-30T02:37:48.909Z,17.92
2022-10-30T02:40:16.627Z,15.30
2022-10-30T02:42:44.268Z,12.35
2022-10-30T02:45:12.593Z,18.17
2022-10-30T02:47:40.184Z,13.68
2022-10-30T02:50:08.628Z,13.35
2022-10-30T02:52:36.212Z,17.75
2022-10-30T02:55:05.561Z,17.17
2022-10-30T02:57:33.939Z,14.73
2022-10-30T03:00:09.571Z,15.85
2022-10-30T03:02:37.256Z,13.82
2022-10-30T03:05:05.307Z,12.95
2022-10-30T03:07:32.986Z,14.90
2022-10-30T03:10:03.596Z,14.68
2022-10-30T03:12:33.817Z,14.13
2022-10-30T03:17:43.187Z,12.07
2022-10-30T03:25:34.852Z,18.63
2022-10-30T03:28:04.568Z,16.83
2022-10-30T03:30:37.632Z,14.20
2022-10-30T03:35:49.011Z,15.13
2022-10-30T03:38:26.052Z,13.20
2022-10-30T03:40:54.331Z,17.95
2022-10-30T03:43:27.827Z,22.25
2022-10-30T03:45:56.136Z,12.40
2022-10-30T03:48:24.494Z,13.07
2022-10-30T03:50:53.569Z,16.33
2022-10-30T03:53:21.669Z,11.32
2022-10-30T03:56:03.527Z,14.10
2022-10-30T03:58:33.226Z,14.82
2022-10-30T04:01:04.617Z,13.07
2022-10-30T04:03:32.331Z,14.95
2022-10-30T04:06:00.345Z,19.67
2022-10-30T04:08:27.985Z,13.52
2022-10-30T04:10:56.075Z,18.33
2022-10-30T04:13:23.730Z,18.92
2022-10-30T04:15:56.434Z,13.55
2022-10-30T04:18:26.056Z,16.58
2022-10-30T04:20:53.710Z,13.07
2022-10-30T04:23:22.097Z,18.92
2022-10-30T04:25:49.782Z,22.13
2022-10-30T04:31:05.527Z,15.30
2022-10-30T04:33:34.175Z,16.75
2022-10-30T04:36:02.142Z,17.90
2022-10-30T04:38:29.761Z,14.10
2022-10-30T04:40:57.491Z,20.88
2022-10-30T04:43:25.100Z,15.95
2022-10-30T04:45:52.817Z,16.08
2022-10-30T04:48:21.770Z,13.45
2022-10-30T04:50:49.994Z,21.05
2022-10-30T04:53:18.274Z,10.98
2022-10-30T04:55:46.232Z,15.50
2022-10-30T04:58:14.216Z,19.23
2022-10-30T05:00:42.066Z,12.23
2022-10-30T05:03:12.995Z,17.55
2022-10-30T05:05:42.794Z,15.82
2022-10-30T05:10:52.463Z,19.10
2022-10-30T05:13:21.316Z,16.35
2022-10-30T05:15:49.441Z,34.13
2022-10-30T05:18:17.070Z,16.65
2022-10-30T05:20:47.511Z,14.82
2022-10-30T05:23:15.195Z,16.20
2022-10-30T05:25:42.775Z,17.92
2022-10-30T05:28:10.673Z,18.63
2022-10-30T05:30:38.324Z,14.68
2022-10-30T05:33:06.569Z,14.23
2022-10-30T05:35:35.637Z,12.35
2022-10-30T05:38:05.686Z,15.02
2022-10-30T05:40:33.749Z,18.08
2022-10-30T05:43:01.897Z,19.35
2022-10-30T05:45:29.656Z,16.40
2022-10-30T05:47:57.993Z,22.25
2022-10-30T05:50:26.208Z,17.13
2022-10-30T05:52:56.021Z,12.93
2022-10-30T05:55:25.554Z,20.55
2022-10-30T05:57:57.045Z,18.13
2022-10-30T06:00:25.296Z,18.38
2022-10-30T06:02:52.961Z,19.23
2022-10-30T06:05:20.620Z,15.30
2022-10-30T06:07:48.294Z,20.40
2022-10-30T06:10:16.083Z,16.75
2022-10-30T06:12:45.285Z,16.60
2022-10-30T06:15:12.877Z,14.68
2022-10-30T06:17:40.481Z,18.67
2022-10-30T06:20:08.360Z,15.77
2022-10-30T06:22:36.041Z,18.55
2022-10-30T06:25:03.825Z,15.10
2022-10-30T06:27:31.513Z,16.02
2022-10-30T06:30:00.444Z,20.65
2022-10-30T06:32:28.316Z,15.75
2022-10-30T06:34:56.191Z,17.50
2022-10-30T06:37:23.830Z,13.52
2022-10-30T06:39:51.467Z,17.45
2022-10-30T06:42:19.048Z,12.77
2022-10-30T06:44:46.814Z,15.55
2022-10-30T06:47:15.779Z,18.23
2022-10-30T06:49:43.381Z,16.08
2022-10-30T06:52:11.005Z,15.93
2022-10-30T06:54:38.974Z,13.65
2022-10-30T06:57:06.748Z,15.18
2022-10-30T06:59:34.349Z,15.80
2022-10-30T07:02:03.376Z,15.70
2022-10-30T07:04:34.565Z,17.38
2022-10-30T07:07:02.190Z,13.25
2022-10-30T07:09:29.981Z,15.65
2022-10-30T07:12:00.326Z,17.58
2022-10-30T07:14:30.544Z,11.98
2022-10-30T07:16:58.260Z,12.07
2022-10-30T07:19:25.904Z,10.98
2022-10-30T07:21:55.055Z,15.85
2022-10-30T07:24:22.636Z,11.43
2022-10-30T07:26:50.275Z,12.10
2022-10-30T07:29:17.903Z,14.85
2022-10-30T07:31:57.536Z,19.05
2022-10-30T07:34:29.931Z,12.70
2022-10-30T07:36:58.915Z,14.48
2022-10-30T07:39:26.513Z,14.60
2022-10-30T07:41:54.131Z,11.75
2022-10-30T07:44:21.741Z,11.50
2022-10-30T07:46:49.349Z,9.20
2022-10-30T07:49:17.069Z,16.38
2022-10-30T07:51:44.686Z,9.60
2022-10-30T07:54:13.773Z,11.15
2022-10-30T07:56:41.349Z,13.18
2022-10-30T07:59:09.030Z,12.77
2022-10-30T08:01:36.752Z,11.20
2022-10-30T08:04:05.326Z,13.38
2022-10-30T08:06:33.103Z,12.80
2022-10-30T08:09:00.743Z,12.43
2022-10-30T08:11:29.917Z,9.32
2022-10-30T08:13:57.660Z,15.70
2022-10-30T08:16:27.914Z,12.90
2022-10-30T08:18:55.574Z,15.07
2022-10-30T08:21:23.218Z,9.48
2022-10-30T08:23:51.693Z,11.55
2022-10-30T08:26:19.302Z,9.30
2022-10-30T08:28:48.338Z,10.07
2022-10-30T08:31:15.961Z,8.82
2022-10-30T08:33:43.933Z,11.13
2022-10-30T08:36:11.873Z,11.85
2022-10-30T08:38:39.898Z,11.68
2022-10-30T08:41:07.891Z,11.30
2022-10-30T08:43:35.637Z,10.05
2022-10-30T08:46:05.353Z,14.30
2022-10-30T08:48:33.483Z,9.38
2022-10-30T08:51:02.002Z,12.45
2022-10-30T08:53:29.626Z,15.32
2022-10-30T08:56:01.886Z,11.38
2022-10-30T09:04:03.275Z,12.23
2022-10-30T09:06:31.513Z,10.23
2022-10-30T09:08:59.143Z,14.60
2022-10-30T09:11:26.753Z,8.40
2022-10-30T09:13:54.589Z,10.57
2022-10-30T09:16:23.683Z,7.90
2022-10-30T09:18:51.280Z,13.70
2022-10-30T09:21:18.911Z,9.02
2022-10-30T09:23:46.542Z,11.00
2022-10-30T09:26:18.327Z,13.55
2022-10-30T09:28:48.539Z,11.10
2022-10-30T09:31:16.418Z,10.10
2022-10-30T09:33:45.361Z,14.55
2022-10-30T09:36:16.700Z,11.45
2022-10-30T09:38:47.279Z,9.50
2022-10-30T09:41:24.004Z,9.88
2022-10-30T09:43:58.230Z,13.07
2022-10-30T09:46:31.766Z,9.73
2022-10-30T09:49:04.326Z,12.73
2022-10-30T09:51:46.798Z,9.13
2022-10-30T09:54:20.311Z,9.20
2022-10-30T09:56:50.780Z,9.60
2022-10-30T09:59:21.513Z,13.82
2022-10-30T10:01:51.243Z,12.75
2022-10-30T10:04:26.715Z,14.13
2022-10-30T10:06:58.224Z,11.45
2022-10-30T10:09:27.629Z,12.55
2022-10-30T10:11:56.697Z,10.95
2022-10-30T10:14:25.701Z,10.48
2022-10-30T10:16:54.041Z,11.90
2022-10-30T10:19:23.841Z,10.93
2022-10-30T10:21:56.990Z,10.65
2022-10-30T10:24:26.280Z,15.45
2022-10-30T10:26:57.925Z,12.70
2022-10-30T10:29:49.516Z,14.32
2022-10-30T10:32:28.627Z,12.60
2022-10-30T10:35:09.355Z,11.20
2022-10-30T10:37:40.678Z,15.00
2022-10-30T10:40:20.744Z,8.00
2022-10-30T10:42:53.826Z,13.73
2022-10-30T10:45:25.535Z,12.82
2022-10-30T10:48:11.051Z,19.70
2022-10-30T10:50:43.271Z,17.95
2022-10-30T10:53:12.762Z,11.27
2022-10-30T10:55:42.545Z,11.52
2022-10-30T10:58:15.340Z,17.35
2022-10-30T11:00:43.729Z,9.70
2022-10-30T11:03:13.052Z,12.43
2022-10-30T11:05:45.029Z,13.13
2022-10-30T11:08:19.076Z,10.75
2022-10-30T11:10:47.504Z,14.10
2022-10-30T11:13:15.471Z,13.77
2022-10-30T11:15:48.820Z,12.52
2022-10-30T11:18:17.000Z,10.35
2022-10-30T11:21:02.538Z,15.45
2022-10-30T11:23:39.321Z,12.88
2022-10-30T11:26:26.024Z,9.98
2022-10-30T11:28:54.678Z,9.18
2022-10-30T11:31:23.337Z,13.80
2022-10-30T11:33:51.160Z,12.50
2022-10-30T11:36:22.780Z,18.83
2022-10-30T11:38:50.451Z,13.52
2022-10-30T11:41:18.595Z,9.80
2022-10-30T11:43:46.601Z,10.38
2022-10-30T11:46:19.322Z,10.77
2022-10-30T11:48:49.690Z,12.38
2022-10-30T11:51:30.800Z,12.75
2022-10-30T11:53:59.968Z,10.05
2022-10-30T11:56:29.059Z,16.80
2022-10-30T11:58:58.716Z,10.35
2022-10-30T12:01:27.252Z,8.90
2022-10-30T12:03:55.710Z,13.20
2022-10-30T12:06:29.728Z,10.05
2022-10-30T12:09:02.857Z,16.17
2022-10-30T12:11:32.000Z,14.05
2022-10-30T12:14:00.011Z,12.18
2022-10-30T12:16:28.630Z,9.98
2022-10-30T12:19:00.478Z,14.27
2022-10-30T12:21:29.228Z,14.05
2022-10-30T12:23:58.785Z,12.57
2022-10-30T12:26:29.473Z,10.10
2022-10-30T12:29:00.270Z,10.65
2022-10-30T12:31:33.305Z,13.20
2022-10-30T12:34:05.411Z,14.60
2022-10-30T12:36:37.386Z,16.40
2022-10-30T12:39:06.185Z,11.50
2022-10-30T12:41:39.395Z,15.75
2022-10-30T12:44:15.473Z,14.93
2022-10-30T12:46:47.133Z,11.60
2022-10-30T12:49:16.875Z,11.93
2022-10-30T12:51:49.098Z,9.73
2022-10-30T12:54:20.967Z,12.88
2022-10-30T12:56:52.645Z,15.88
2022-10-30T12:59:26.191Z,10.07
2022-10-30T13:01:57.019Z,18.70
2022-10-30T13:04:26.804Z,10.77
2022-10-30T13:06:58.530Z,12.23
2022-10-30T13:09:29.053Z,10.05
2022-10-30T13:12:10.093Z,10.75
2022-10-30T13:14:39.973Z,12.10
2022-10-30T13:17:11.151Z,13.07
2022-10-30T13:19:41.655Z,13.75
2022-10-30T13:22:14.777Z,11.80
2022-10-30T13:24:48.392Z,12.90
2022-10-30T13:27:21.167Z,14.00
2022-10-30T13:30:01.564Z,11.32
2022-10-30T13:32:35.284Z,13.80
2022-10-30T13:35:10.935Z,12.95
2022-10-30T13:37:41.466Z,13.15
2022-10-30T13:40:14.831Z,13.57
2022-10-30T13:42:50.126Z,9.18
2022-10-30T13:45:38.666Z,16.92
2022-10-30T13:48:09.897Z,13.60
2022-10-30T13:50:42.089Z,11.63
2022-10-30T13:53:16.888Z,17.73
2022-10-30T13:55:45.031Z,14.95
2022-10-30T13:58:17.820Z,11.15
2022-10-30T14:00:57.767Z,11.40
2022-10-30T14:03:30.806Z,16.23
2022-10-30T14:06:03.155Z,15.85
2022-10-30T14:08:34.727Z,18.73
2022-10-30T14:11:03.738Z,13.57
2022-10-30T14:13:45.789Z,15.95
2022-10-30T14:16:28.204Z,16.17
2022-10-30T14:19:03.083Z,10.88
2022-10-30T14:21:32.015Z,10.30
2022-10-30T14:24:03.951Z,8.85
2022-10-30T14:26:31.660Z,9.90
2022-10-30T14:29:20.628Z,11.30
2022-10-30T14:31:48.328Z,8.52
2022-10-30T14:34:30.825Z,9.68
2022-10-30T14:36:58.582Z,11.00
2022-10-30T14:39:28.608Z,9.63
2022-10-30T14:42:01.826Z,13.52
2022-10-30T14:44:43.004Z,11.88
2022-10-30T14:47:30.593Z,11.80
2022-10-30T14:50:01.983Z,7.95
2022-10-30T14:52:33.162Z,4.93
2022-10-30T14:55:06.980Z,3.30
2022-10-30T14:57:48.526Z,8.13
2022-10-30T15:00:46.543Z,7.18
2022-10-30T15:03:22.591Z,3.20
2022-10-30T15:05:52.623Z,4.00
2022-10-30T15:08:29.823Z,5.07
2022-10-30T15:11:05.148Z,6.57
2022-10-30T15:13:33.235Z,5.40
2022-10-30T15:16:01.553Z,5.82
2022-10-30T15:18:31.131Z,6.47
2022-10-30T15:21:02.713Z,5.03
2022-10-30T15:23:30.764Z,7.55
2022-10-30T15:26:03.599Z,5.80
2022-10-30T15:28:35.736Z,9.15
2022-10-30T15:31:04.266Z,9.07
2022-10-30T15:33:35.461Z,6.28
2022-10-30T15:36:03.269Z,4.43
2022-10-30T15:38:30.858Z,5.47
2022-10-30T15:40:59.425Z,7.28
2022-10-30T15:43:30.306Z,7.07
2022-10-30T15:45:57.960Z,6.10
2022-10-30T15:48:26.339Z,7.68
2022-10-30T15:50:59.912Z,6.47
2022-10-30T15:53:31.057Z,3.22
2022-10-30T15:55:59.604Z,5.88
2022-10-30T15:58:27.300Z,6.88
2022-10-30T16:00:58.348Z,8.52
2022-10-30T16:03:26.269Z,5.53
2022-10-30T16:06:05.786Z,4.80
2022-10-30T16:08:43.483Z,3.30
2022-10-30T16:11:11.363Z,3.90
2022-10-30T16:13:38.995Z,4.32
2022-10-30T16:16:07.292Z,11.50
2022-10-30T16:18:36.084Z,6.65
2022-10-30T16:21:06.925Z,5.25
2022-10-30T16:23:38.632Z,10.05
2022-10-30T16:26:06.543Z,6.68
2022-10-30T16:28:35.208Z,4.32
2022-10-30T16:31:04.504Z,6.22
2022-10-30T16:33:33.377Z,8.90
2022-10-30T16:36:04.324Z,10.15
2022-10-30T16:38:35.046Z,9.70
2022-10-30T16:41:02.747Z,8.15
2022-10-30T16:43:32.274Z,12.25
2022-10-30T16:46:19.692Z,6.55
2022-10-30T16:48:48.628Z,5.45
2022-10-30T16:51:17.440Z,6.85
2022-10-30T16:53:48.669Z,9.15
2022-10-30T16:56:20.518Z,7.88
2022-10-30T16:58:48.189Z,9.05
2022-10-30T17:01:16.019Z,7.60
2022-10-30T17:03:43.933Z,6.15
2022-10-30T17:06:26.626Z,7.40
2022-10-30T17:08:58.201Z,9.50
2022-10-30T17:11:35.759Z,8.10
2022-10-30T17:14:05.049Z,9.30
2022-10-30T17:16:33.846Z,8.00
2022-10-30T17:19:02.395Z,7.75
2022-10-30T17:21:31.340Z,6.35
2022-10-30T17:24:01.131Z,6.63
2022-10-30T17:26:29.790Z,6.65
2022-10-30T17:28:57.609Z,8.68
2022-10-30T17:31:28.226Z,6.93
2022-10-30T17:34:06.736Z,10.63
2022-10-30T17:36:34.438Z,6.43
2022-10-30T17:39:03.440Z,8.63
2022-10-30T17:41:31.111Z,7.10
2022-10-30T17:43:58.687Z,12.13
2022-10-30T17:46:26.329Z,9.63
2022-10-30T17:48:53.999Z,11.43
2022-10-30T17:51:21.617Z,11.10
2022-10-30T17:53:49.555Z,16.08
2022-10-30T17:56:20.523Z,12.48
2022-10-30T17:58:48.299Z,11.30
2022-10-30T18:01:17.354Z,11.35
2022-10-30T18:03:45.326Z,10.73
2022-10-30T18:06:17.248Z,13.82
2022-10-30T18:08:47.918Z,9.95
2022-10-30T18:11:20.924Z,13.95
2022-10-30T18:13:50.525Z,12.13
2022-10-30T18:16:18.926Z,10.95
2022-10-30T18:18:46.569Z,10.55
2022-10-30T18:21:14.852Z,13.75
2022-10-30T18:23:58.215Z,14.02
2022-10-30T18:26:28.932Z,12.57
2022-10-30T18:28:56.595Z,24.42
2022-10-30T18:31:25.233Z,15.32
2022-10-30T18:33:53.045Z,17.95
2022-10-30T18:36:21.525Z,13.82
2022-10-30T18:38:49.345Z,9.00
2022-10-30T18:41:17.893Z,14.88
2022-10-30T18:43:47.347Z,10.20
2022-10-30T18:46:15.895Z,11.60
2022-10-30T18:48:43.820Z,13.00
2022-10-30T18:51:15.685Z,14.88
2022-10-30T18:53:51.149Z,12.45
2022-10-30T18:56:19.382Z,10.75
2022-10-30T18:58:48.394Z,10.00
2022-10-30T19:01:17.194Z,8.90
2022-10-30T19:03:45.485Z,14.23
2022-10-30T19:06:13.735Z,10.05
2022-10-30T19:08:41.439Z,9.95
2022-10-30T19:11:10.726Z,11.38
2022-10-30T19:13:38.498Z,10.13
2022-10-30T19:16:11.058Z,13.77
2022-10-30T19:18:38.766Z,12.68
2022-10-30T19:21:10.174Z,12.98
2022-10-30T19:23:41.398Z,10.57
2022-10-30T19:28:50.647Z,10.88
2022-10-30T19:31:20.248Z,6.20
2022-10-30T19:33:52.851Z,10.07
2022-10-30T19:36:28.002Z,8.35
2022-10-30T19:38:55.996Z,10.93
2022-10-30T19:41:25.198Z,7.93
2022-10-30T19:44:00.811Z,10.10
2022-10-30T19:46:29.809Z,10.43
2022-10-30T19:48:58.961Z,12.30
2022-10-30T19:51:27.123Z,13.43
2022-10-30T19:53:54.810Z,10.85
2022-10-30T19:56:22.729Z,8.60
2022-10-30T19:58:51.594Z,9.15
2022-10-30T20:01:19.403Z,12.13
2022-10-30T20:03:48.643Z,13.98
2022-10-30T20:06:16.386Z,13.63
2022-10-30T20:08:44.048Z,9.77
2022-10-30T20:11:11.685Z,16.90
2022-10-30T20:13:39.315Z,12.60
2022-10-30T20:18:51.382Z,11.95
2022-10-30T20:21:20.426Z,13.05
2022-10-30T20:23:48.090Z,12.70
2022-10-30T20:26:19.997Z,14.20
2022-10-30T20:28:47.642Z,7.88
2022-10-30T20:31:15.429Z,10.77
2022-10-30T20:33:43.401Z,6.18
2022-10-30T20:36:13.728Z,8.10
2022-10-30T20:38:41.368Z,7.57
2022-10-30T20:41:19.453Z,8.10
2022-10-30T20:43:47.383Z,5.30
2022-10-30T20:46:15.170Z,8.50
2022-10-30T20:48:43.038Z,9.93
2022-10-30T20:51:12.534Z,3.20
2022-10-30T20:53:41.498Z,4.97
2022-10-30T20:56:09.117Z,5.25
2022-10-30T20:58:36.730Z,7.75
2022-10-30T21:01:04.418Z,7.75
2022-10-30T21:03:32.050Z,6.97
2022-10-30T21:06:01.200Z,5.30
2022-10-30T21:08:32.221Z,8.55
2022-10-30T21:11:01.580Z,6.90
2022-10-30T21:13:29.516Z,7.78
2022-10-30T21:16:00.941Z,8.73
2022-10-30T21:18:28.582Z,6.38
2022-10-30T21:21:00.432Z,5.25
2022-10-30T21:23:28.226Z,8.00
2022-10-30T21:26:01.066Z,3.72
2022-10-30T21:28:29.268Z,5.30
2022-10-30T21:31:01.360Z,5.50
2022-10-30T21:33:30.597Z,15.20
2022-10-30T21:35:58.214Z,7.38
2022-10-30T21:38:25.798Z,9.27
2022-10-30T21:40:56.951Z,6.57
2022-10-30T21:43:25.992Z,6.95
2022-10-30T21:45:53.703Z,7.13
2022-10-30T21:48:21.325Z,7.10
2022-10-30T21:50:49.060Z,8.05
2022-10-30T21:53:16.631Z,6.90
2022-10-30T21:55:49.448Z,6.80
2022-10-30T21:58:17.279Z,12.85
2022-10-30T22:00:46.257Z,11.30
2022-10-30T22:03:13.896Z,7.55
2022-10-30T22:05:41.511Z,9.00
2022-10-30T22:08:09.079Z,8.82
2022-10-30T22:10:36.730Z,9.65
2022-10-30T22:13:04.374Z,9.48
2022-10-30T22:15:31.980Z,6.78
2022-10-30T22:18:01.358Z,10.25
2022-10-30T22:20:29.203Z,11.70
2022-10-30T22:22:56.820Z,11.10
2022-10-30T22:25:24.641Z,10.77
2022-10-30T22:27:52.258Z,12.45
2022-10-30T22:30:19.919Z,10.45
2022-10-30T22:32:47.555Z,9.80
2022-10-30T22:35:16.769Z,10.57
2022-10-30T22:37:44.449Z,11.93
2022-10-30T22:40:12.436Z,16.23
2022-10-30T22:42:40.000Z,17.25
2022-10-30T22:45:08.249Z,13.38
2022-10-30T22:47:35.867Z,13.75
2022-10-30T22:50:03.469Z,12.82
2022-10-30T22:52:32.471Z,13.43
2022-10-30T22:55:00.109Z,10.35
2022-10-30T22:57:27.750Z,16.10
2022-10-30T22:59:55.347Z,18.58
2022-10-30T23:02:22.960Z,14.60
2022-10-30T23:04:50.675Z,14.40
2022-10-30T23:07:18.348Z,13.15
2022-10-30T23:09:47.280Z,12.45
2022-10-30T23:12:14.867Z,15.52
2022-10-30T23:14:42.532Z,8.90
2022-10-30T23:17:10.262Z,8.20
2022-10-30T23:19:37.910Z,11.00
2022-10-30T23:22:05.563Z,10.68
2022-10-30T23:24:33.911Z,13.63
2022-10-30T23:27:02.857Z,10.15
2022-10-30T23:29:30.604Z,13.70
2022-10-30T23:31:58.220Z,10.60
2022-10-30T23:34:25.834Z,13.02
2022-10-30T23:36:56.397Z,11.63
2022-10-30T23:39:28.700Z,11.65
2022-10-30T23:41:56.362Z,12.40
2022-10-30T23:44:25.299Z,16.67
2022-10-30T23:46:52.902Z,16.00
2022-10-30T23:49:20.482Z,13.88
2022-10-30T23:51:48.095Z,9.70
2022-10-30T23:54:15.683Z,13.68
2022-10-30T23:56:43.423Z,16.13
2022-10-30T23:59:11.172Z,12.45
